createdAt,value
2022-10-18T00:00:29.250Z,6.63
2022-10-18T00:05:31.390Z,5.65
2022-10-18T00:10:31.211Z,5.47
2022-10-18T00:15:32.901Z,4.60
2022-10-18T00:20:33.006Z,4.95
2022-10-18T00:25:33.546Z,5.00
2022-10-18T00:30:38.628Z,5.63
2022-10-18T00:35:45.652Z,5.00
2022-10-18T00:40:46.879Z,6.30
2022-10-18T00:45:48.169Z,5.45
2022-10-18T00:50:47.089Z,5.15
2022-10-18T00:55:45.531Z,5.50
2022-10-18T01:00:44.482Z,5.47
2022-10-18T01:05:47.260Z,5.45
2022-10-18T01:10:59.870Z,5.80
2022-10-18T01:16:14.168Z,5.85
2022-10-18T01:21:34.962Z,6.07
2022-10-18T01:26:34.415Z,5.50
2022-10-18T01:32:02.605Z,6.03
2022-10-18T01:37:05.539Z,6.40
2022-10-18T01:42:09.363Z,6.05
2022-10-18T01:47:09.927Z,6.70
2022-10-18T01:52:13.838Z,6.03
2022-10-18T01:57:20.824Z,6.32
2022-10-18T02:02:54.365Z,6.07
2022-10-18T02:08:18.986Z,6.20
2022-10-18T02:13:27.677Z,7.00
2022-10-18T02:18:31.584Z,7.68
2022-10-18T02:23:33.880Z,6.30
2022-10-18T02:28:35.484Z,7.10
2022-10-18T02:33:49.789Z,6.80
2022-10-18T02:38:57.068Z,6.10
2022-10-18T02:43:55.831Z,6.75
2022-10-18T02:48:57.678Z,6.90
2022-10-18T02:53:56.731Z,6.43
2022-10-18T02:58:56.124Z,6.47
2022-10-18T03:04:23.147Z,6.97
2022-10-18T03:09:21.500Z,6.68
2022-10-18T03:14:24.195Z,6.70
2022-10-18T03:19:29.750Z,6.30
2022-10-18T03:24:32.569Z,6.65
2022-10-18T03:29:33.940Z,6.72
2022-10-18T03:34:38.750Z,5.93
2022-10-18T03:39:37.085Z,9.10
2022-10-18T03:44:35.766Z,6.38
2022-10-18T03:49:37.752Z,7.28
2022-10-18T03:54:37.620Z,7.78
2022-10-18T03:59:39.074Z,6.40
2022-10-18T04:04:41.027Z,6.97
2022-10-18T04:09:42.330Z,6.72
2022-10-18T04:14:43.773Z,6.85
2022-10-18T04:19:43.401Z,7.35
2022-10-18T04:24:44.973Z,7.28
2022-10-18T04:29:47.754Z,8.48
2022-10-18T04:35:17.387Z,10.13
2022-10-18T04:40:20.209Z,9.70
2022-10-18T04:45:19.476Z,10.45
2022-10-18T04:50:20.104Z,10.40
2022-10-18T04:55:20.948Z,10.85
2022-10-18T05:00:23.195Z,11.65
2022-10-18T05:05:43.484Z,10.07
2022-10-18T05:11:06.095Z,7.72
2022-10-18T05:16:09.225Z,12.25
2022-10-18T05:21:08.712Z,13.67
2022-10-18T05:26:10.172Z,12.70
2022-10-18T05:31:13.612Z,10.45
2022-10-18T05:36:12.388Z,10.82
2022-10-18T05:41:15.035Z,13.85
2022-10-18T05:46:15.969Z,15.15
2022-10-18T05:51:14.712Z,12.68
2022-10-18T05:56:16.233Z,14.95
2022-10-18T06:01:17.695Z,10.63
2022-10-18T06:06:19.384Z,9.68
2022-10-18T06:11:23.153Z,9.80
2022-10-18T06:16:29.806Z,9.43
2022-10-18T06:21:36.582Z,8.30
2022-10-18T06:26:34.802Z,8.60
2022-10-18T06:31:33.793Z,9.60
2022-10-18T06:36:35.262Z,10.38
2022-10-18T06:41:36.720Z,7.78
2022-10-18T06:46:49.679Z,7.57
2022-10-18T06:51:56.392Z,10.80
2022-10-18T06:56:59.933Z,10.10
2022-10-18T07:02:02.760Z,9.32
2022-10-18T07:07:01.897Z,6.65
2022-10-18T07:12:06.268Z,7.03
2022-10-18T07:17:07.260Z,6.07
2022-10-18T07:22:13.004Z,6.15
2022-10-18T07:27:17.172Z,5.05
2022-10-18T07:32:17.330Z,6.47
2022-10-18T07:37:15.577Z,5.72
2022-10-18T07:42:17.074Z,4.93
2022-10-18T07:47:19.610Z,5.90
2022-10-18T07:52:20.627Z,5.43
2022-10-18T07:57:35.588Z,6.60
2022-10-18T08:02:53.364Z,5.03
2022-10-18T08:07:52.279Z,5.57
2022-10-18T08:12:51.729Z,5.82
2022-10-18T08:23:35.171Z,5.93
2022-10-18T08:28:36.845Z,6.18
2022-10-18T08:33:42.579Z,5.50
2022-10-18T08:38:44.257Z,5.40
2022-10-18T08:43:50.160Z,5.75
2022-10-18T08:48:56.560Z,5.78
2022-10-18T08:54:19.694Z,5.55
2022-10-18T08:59:29.448Z,6.32
2022-10-18T09:04:59.957Z,7.93
2022-10-18T09:10:11.101Z,7.97
2022-10-18T09:15:39.355Z,7.07
2022-10-18T09:21:01.522Z,6.35
2022-10-18T09:26:14.729Z,6.78
2022-10-18T09:31:20.196Z,6.10
2022-10-18T09:36:26.584Z,5.57
2022-10-18T09:41:52.634Z,5.18
2022-10-18T09:47:07.076Z,5.43
2022-10-18T09:52:10.975Z,5.00
2022-10-18T09:57:41.772Z,5.50
2022-10-18T10:02:41.103Z,5.25
2022-10-18T10:07:44.880Z,5.10
2022-10-18T10:12:44.318Z,7.43
2022-10-18T10:17:43.435Z,5.03
2022-10-18T10:22:44.313Z,4.20
2022-10-18T10:27:46.497Z,5.53
2022-10-18T10:32:48.405Z,8.88
2022-10-18T10:37:51.680Z,6.10
2022-10-18T10:43:18.351Z,5.35
2022-10-18T10:48:28.797Z,5.35
2022-10-18T10:53:57.636Z,4.43
2022-10-18T10:59:01.479Z,3.77
2022-10-18T11:09:12.967Z,4.18
2022-10-18T11:14:26.596Z,3.60
2022-10-18T11:20:13.982Z,3.15
2022-10-18T11:25:16.657Z,3.35
2022-10-18T11:30:38.188Z,3.88
2022-10-18T11:35:47.438Z,3.35
2022-10-18T11:40:56.922Z,3.63
2022-10-18T11:46:12.184Z,3.63
2022-10-18T11:52:03.597Z,3.97
2022-10-18T11:57:32.465Z,3.42
2022-10-18T12:03:01.400Z,3.72
2022-10-18T12:08:06.369Z,4.00
2022-10-18T12:13:06.276Z,6.43
2022-10-18T12:18:08.590Z,4.22
2022-10-18T12:23:47.735Z,4.70
2022-10-18T12:29:03.918Z,4.40
2022-10-18T12:34:20.164Z,4.35
2022-10-18T12:39:43.415Z,3.30
2022-10-18T12:44:44.079Z,3.92
2022-10-18T12:49:44.746Z,3.95
2022-10-18T12:55:03.643Z,6.47
2022-10-18T13:00:05.708Z,3.25
2022-10-18T13:05:53.795Z,3.40
2022-10-18T13:11:11.319Z,2.92
2022-10-18T13:16:40.568Z,2.97
2022-10-18T13:21:47.435Z,3.33
2022-10-18T13:26:59.199Z,2.85
2022-10-18T13:32:29.800Z,3.60
2022-10-18T13:37:31.210Z,2.65
2022-10-18T13:42:36.447Z,3.35
2022-10-18T13:47:37.455Z,3.05
2022-10-18T13:53:01.945Z,2.33
2022-10-18T13:58:14.937Z,4.47
2022-10-18T14:03:51.865Z,3.00
2022-10-18T14:09:25.405Z,2.60
2022-10-18T14:14:38.488Z,2.88
2022-10-18T14:19:47.469Z,2.78
2022-10-18T14:24:56.436Z,2.58
2022-10-18T14:30:15.208Z,2.97
2022-10-18T14:35:32.569Z,3.88
2022-10-18T14:40:42.278Z,2.90
2022-10-18T14:45:40.735Z,2.88
2022-10-18T14:50:42.422Z,3.50
2022-10-18T14:55:43.795Z,3.28
2022-10-18T15:00:52.041Z,3.83
2022-10-18T15:12:13.896Z,3.10
2022-10-18T15:17:23.218Z,3.38
2022-10-18T15:22:32.863Z,5.93
2022-10-18T15:28:23.260Z,10.68
2022-10-18T15:33:54.613Z,7.30
2022-10-18T15:39:26.189Z,5.55
2022-10-18T15:44:52.163Z,5.05
2022-10-18T15:50:48.992Z,4.82
2022-10-18T15:56:27.142Z,5.03
2022-10-18T16:02:02.491Z,8.88
2022-10-18T16:07:13.662Z,6.93
2022-10-18T16:12:15.670Z,6.25
2022-10-18T16:17:17.491Z,6.55
2022-10-18T16:22:37.207Z,8.50
2022-10-18T16:27:39.116Z,12.10
2022-10-18T16:32:53.544Z,19.70
2022-10-18T16:37:54.219Z,18.25
2022-10-18T16:42:51.981Z,15.82
2022-10-18T16:48:03.238Z,14.25
2022-10-18T16:53:56.005Z,15.55
2022-10-18T16:59:04.785Z,15.82
2022-10-18T17:04:04.485Z,16.98
2022-10-18T17:09:11.927Z,12.57
2022-10-18T17:14:16.919Z,12.25
2022-10-18T17:19:19.704Z,14.98
2022-10-18T17:24:26.581Z,16.98
2022-10-18T17:29:35.200Z,22.33
2022-10-18T17:34:42.311Z,19.52
2022-10-18T17:40:11.423Z,21.38
2022-10-18T17:45:31.073Z,23.65
2022-10-18T17:51:02.676Z,23.77
2022-10-18T17:56:09.381Z,28.08
2022-10-18T18:01:25.964Z,24.60
2022-10-18T18:06:36.051Z,24.92
2022-10-18T18:12:03.644Z,24.58
2022-10-18T18:17:56.815Z,28.92
2022-10-18T18:23:01.341Z,29.73
2022-10-18T18:28:05.138Z,31.98
2022-10-18T18:33:06.924Z,29.77
2022-10-18T18:38:05.423Z,27.17
2022-10-18T18:43:22.683Z,26.40
2022-10-18T18:48:30.397Z,23.35
2022-10-18T18:53:32.420Z,22.92
2022-10-18T18:58:32.184Z,25.65
2022-10-18T19:03:33.792Z,22.08
2022-10-18T19:08:36.098Z,18.50
2022-10-18T19:13:39.093Z,17.75
2022-10-18T19:18:39.295Z,19.35
2022-10-18T19:23:39.200Z,16.75
2022-10-18T19:28:37.336Z,17.90
2022-10-18T19:33:47.932Z,15.57
2022-10-18T19:38:57.858Z,16.80
2022-10-18T19:43:59.295Z,14.50
2022-10-18T19:48:58.507Z,15.50
2022-10-18T19:54:01.170Z,13.05
2022-10-18T19:59:06.232Z,15.02
2022-10-18T20:04:09.747Z,12.95
2022-10-18T20:09:13.360Z,12.23
2022-10-18T20:14:16.862Z,13.57
2022-10-18T20:19:18.958Z,13.32
2022-10-18T20:24:22.578Z,12.02
2022-10-18T20:29:26.678Z,11.43
2022-10-18T20:34:28.636Z,12.20
2022-10-18T20:39:28.226Z,12.90
2022-10-18T20:44:34.785Z,13.55
2022-10-18T20:49:35.931Z,15.05
2022-10-18T20:54:37.664Z,14.90
2022-10-18T20:59:38.897Z,15.05
2022-10-18T21:04:42.284Z,16.08
2022-10-18T21:09:44.528Z,11.30
2022-10-18T21:14:46.818Z,9.80
2022-10-18T21:19:45.934Z,9.25
2022-10-18T21:24:45.409Z,8.30
2022-10-18T21:29:48.883Z,8.93
2022-10-18T21:34:48.540Z,9.63
2022-10-18T21:39:50.641Z,9.48
2022-10-18T21:44:50.226Z,12.38
2022-10-18T21:49:53.428Z,11.57
2022-10-18T21:54:56.358Z,11.93
2022-10-18T21:59:59.686Z,11.52
2022-10-18T22:05:02.322Z,12.65
2022-10-18T22:10:05.084Z,12.27
2022-10-18T22:15:13.309Z,14.18
2022-10-18T22:20:15.192Z,13.25
2022-10-18T22:25:14.770Z,12.05
2022-10-18T22:30:16.392Z,11.20
2022-10-18T22:35:17.769Z,9.80
2022-10-18T22:40:33.081Z,9.15
2022-10-18T22:45:35.380Z,7.13
2022-10-18T22:50:36.006Z,6.82
2022-10-18T22:55:39.067Z,6.05
2022-10-18T23:00:42.672Z,9.57
2022-10-18T23:05:46.690Z,6.35
2022-10-18T23:10:46.218Z,5.72
2022-10-18T23:15:46.130Z,6.38
2022-10-18T23:20:46.178Z,5.15
2022-10-18T23:25:51.078Z,5.15
2022-10-18T23:30:53.692Z,4.88
2022-10-18T23:35:55.968Z,4.97
2022-10-18T23:40:54.955Z,6.05
2022-10-18T23:45:54.249Z,5.47
2022-10-18T23:50:55.634Z,5.90
2022-10-18T23:56:06.096Z,5.18
